Archival Weather

Heathrow

London, United Kingdom (EGLL)

Report from: Friday, June 21, 2024 3:50 PM BST
Current time: Sunday, July 14, 2024 11:20 AM BST

Current weather – Weather history – Daily summaries
Weather forecast

Temperature24.0°C (75.2°F)
Dew point9.0°C (48.2°F)
Winds 14 kts (7.2 m/s, 16.1 mph) West-Southwest (240°)
Wind gusts 26 kts (13.4 m/s, 29.9 mph)
Visibility6.2 mi. (10 km)
Clouds Sky clear
Altimeter29.85 in.Hg (1011 mB)
Relative humidity39 %
Density altitude1,285 ft. (392 m)
Remarks Fully automated report
No clouds detected
No significant changes expected in the next two hours
Flight conditions Visual Meteorological Conditions
Raw dataEGLL 211450Z AUTO 24014G26KT 9999 NCD 24/09 Q1011 NOSIG
An error has occurred. This application may no longer respond until reloaded. Reload 🗙